createdAt,value
2018-05-04T00:00:42.443Z,0.00
2018-05-04T00:01:42.447Z,0.00
2018-05-04T00:02:42.444Z,0.00
2018-05-04T00:03:42.454Z,0.00
2018-05-04T00:04:42.432Z,0.00
2018-05-04T00:05:42.431Z,0.00
2018-05-04T00:06:42.434Z,0.00
2018-05-04T00:07:42.420Z,0.00
2018-05-04T00:08:42.419Z,0.00
2018-05-04T00:09:42.433Z,0.00
2018-05-04T00:10:42.407Z,0.00
2018-05-04T00:11:42.402Z,0.00
2018-05-04T00:12:42.397Z,0.00
2018-05-04T00:13:42.404Z,0.00
2018-05-04T00:14:42.389Z,0.00
2018-05-04T00:15:42.397Z,0.00
2018-05-04T00:16:43.366Z,0.00
2018-05-04T00:17:42.389Z,0.00
2018-05-04T00:18:42.372Z,0.00
2018-05-04T00:19:42.402Z,0.00
2018-05-04T00:20:42.363Z,0.00
2018-05-04T00:21:42.360Z,0.00
2018-05-04T00:22:42.363Z,0.00
2018-05-04T00:23:42.349Z,0.00
2018-05-04T00:24:42.347Z,0.00
2018-05-04T00:25:42.342Z,0.00
2018-05-04T00:26:42.332Z,0.00
2018-05-04T00:27:42.330Z,0.00
2018-05-04T00:28:42.327Z,0.00
2018-05-04T00:29:42.316Z,0.00
2018-05-04T00:30:42.318Z,0.00
2018-05-04T00:31:42.317Z,0.00
2018-05-04T00:32:42.308Z,0.00
2018-05-04T00:33:42.307Z,0.00
2018-05-04T00:34:42.299Z,0.00
2018-05-04T00:35:42.288Z,0.00
2018-05-04T00:36:42.299Z,0.00
2018-05-04T00:37:42.285Z,0.00
2018-05-04T00:38:42.272Z,0.00
2018-05-04T00:39:42.277Z,0.00
2018-05-04T00:40:42.280Z,0.00
2018-05-04T00:41:42.263Z,0.00
2018-05-04T00:42:42.268Z,0.00
2018-05-04T00:43:42.262Z,0.00
2018-05-04T00:44:42.255Z,0.00
2018-05-04T00:45:42.255Z,0.00
2018-05-04T00:46:42.254Z,0.00
2018-05-04T00:47:42.239Z,0.00
2018-05-04T00:48:42.261Z,0.00
2018-05-04T00:49:42.233Z,0.00
2018-05-04T00:50:42.226Z,0.00
2018-05-04T00:51:42.230Z,0.00
2018-05-04T00:52:42.229Z,0.00
2018-05-04T00:53:42.209Z,0.00
2018-05-04T00:54:42.206Z,0.00
2018-05-04T00:55:42.220Z,0.00
2018-05-04T00:56:42.213Z,0.00
2018-05-04T00:57:42.193Z,0.00
2018-05-04T00:58:42.189Z,0.00
2018-05-04T00:59:42.182Z,0.00
2018-05-04T01:00:42.181Z,0.00
2018-05-04T01:01:42.176Z,0.00
2018-05-04T01:02:42.174Z,0.00
2018-05-04T01:03:42.169Z,0.00
2018-05-04T01:04:42.164Z,0.00
2018-05-04T01:05:42.171Z,0.00
2018-05-04T01:06:42.157Z,0.00
2018-05-04T01:07:42.146Z,0.00
2018-05-04T01:08:42.144Z,0.00
2018-05-04T01:09:42.141Z,0.00
2018-05-04T01:10:42.151Z,0.00
2018-05-04T01:11:42.119Z,0.00
2018-05-04T01:12:42.128Z,0.00
2018-05-04T01:13:42.135Z,0.00
2018-05-04T01:14:42.121Z,0.00
2018-05-04T01:15:42.121Z,0.00
2018-05-04T01:16:42.115Z,0.00
2018-05-04T01:17:42.101Z,0.00
2018-05-04T01:18:42.098Z,0.00
2018-05-04T01:19:42.121Z,0.00
2018-05-04T01:20:42.108Z,0.00
2018-05-04T01:21:42.086Z,0.00
2018-05-04T01:22:42.943Z,0.00
2018-05-04T01:23:42.076Z,0.00
2018-05-04T01:24:42.070Z,0.00
2018-05-04T01:25:42.059Z,0.00
2018-05-04T01:26:42.065Z,0.00
2018-05-04T01:27:42.077Z,0.00
2018-05-04T01:28:42.054Z,0.00
2018-05-04T01:29:42.046Z,0.00
2018-05-04T02:02:07.140Z,0.00
2018-05-04T02:03:07.102Z,0.00
2018-05-04T02:05:00.044Z,0.00
2018-05-04T02:06:00.027Z,0.00
2018-05-04T02:07:52.966Z,0.00
2018-05-04T02:08:52.916Z,0.00
2018-05-04T02:10:45.856Z,0.00
2018-05-04T02:11:45.827Z,0.00
2018-05-04T02:13:38.796Z,0.00
2018-05-04T02:14:38.769Z,0.00
2018-05-04T02:16:31.700Z,0.00
2018-05-04T02:17:31.680Z,0.00
2018-05-04T02:19:24.617Z,0.00
2018-05-04T02:20:24.592Z,0.00
2018-05-04T02:22:17.572Z,0.00
2018-05-04T02:23:17.554Z,0.00
2018-05-04T02:25:10.522Z,0.00
2018-05-04T02:26:10.498Z,0.00
2018-05-04T02:28:03.465Z,0.00
2018-05-04T02:29:03.430Z,0.00
2018-05-04T02:30:56.375Z,0.00
2018-05-04T02:31:56.348Z,0.00
2018-05-04T02:33:49.387Z,0.00
2018-05-04T02:34:49.356Z,0.00
2018-05-04T02:36:42.278Z,0.00
2018-05-04T02:37:42.263Z,0.00
2018-05-04T02:39:35.194Z,0.00
2018-05-04T02:40:35.167Z,0.00
2018-05-04T02:42:28.105Z,0.00
2018-05-04T02:43:28.075Z,0.00
2018-05-04T02:45:21.061Z,0.00
2018-05-04T02:46:21.019Z,0.00
2018-05-04T02:48:14.030Z,0.00
2018-05-04T02:49:14.009Z,0.00
2018-05-04T02:51:06.934Z,0.00
2018-05-04T02:52:06.899Z,0.00
2018-05-04T02:53:59.810Z,0.00
2018-05-04T02:54:59.796Z,0.00
2018-05-04T02:56:52.712Z,0.00
2018-05-04T02:57:52.698Z,0.00
2018-05-04T02:59:45.688Z,0.00
2018-05-04T03:00:45.639Z,0.00
2018-05-04T03:02:38.548Z,0.00
2018-05-04T03:03:38.536Z,0.00
2018-05-04T03:05:31.549Z,0.00
2018-05-04T03:06:31.526Z,0.00
2018-05-04T03:08:24.532Z,0.00
2018-05-04T03:09:24.523Z,0.00
2018-05-04T03:11:17.493Z,0.00
2018-05-04T03:12:17.480Z,0.00
2018-05-04T03:14:10.431Z,0.00
2018-05-04T03:15:10.421Z,0.00
2018-05-04T03:17:03.326Z,0.00
2018-05-04T03:18:03.312Z,0.00
2018-05-04T03:19:56.261Z,0.00
2018-05-04T03:20:56.234Z,0.00
2018-05-04T03:22:49.187Z,0.00
2018-05-04T03:23:49.173Z,0.00
2018-05-04T03:25:42.163Z,0.00
2018-05-04T03:26:42.143Z,4.00
2018-05-04T03:28:35.146Z,4.00
2018-05-04T03:29:35.104Z,4.00
2018-05-04T03:31:28.077Z,4.00
2018-05-04T03:32:28.053Z,8.00
2018-05-04T03:34:21.011Z,8.00
2018-05-04T03:35:20.990Z,8.00
2018-05-04T03:37:13.918Z,12.00
2018-05-04T03:38:13.906Z,12.00
2018-05-04T03:40:06.877Z,20.00
2018-05-04T03:41:06.827Z,20.00
2018-05-04T03:42:59.839Z,20.00
2018-05-04T03:43:59.821Z,24.00
2018-05-04T03:45:52.740Z,36.00
2018-05-04T03:46:52.719Z,44.00
2018-05-04T03:48:45.672Z,60.00
2018-05-04T03:49:45.656Z,68.00
2018-05-04T03:51:38.656Z,84.00
2018-05-04T03:52:38.646Z,96.00
2018-05-04T03:54:32.590Z,128.00
2018-05-04T03:55:32.567Z,148.00
2018-05-04T03:57:25.472Z,156.00
2018-05-04T03:58:25.456Z,156.00
2018-05-04T04:00:18.397Z,152.00
2018-05-04T04:01:18.378Z,144.00
2018-05-04T04:03:11.343Z,188.00
2018-05-04T04:04:11.366Z,212.00
2018-05-04T04:06:04.246Z,264.00
2018-05-04T04:07:04.224Z,280.00
2018-05-04T04:08:57.184Z,332.00
2018-05-04T04:09:57.171Z,404.00
2018-05-04T04:11:50.138Z,468.00
2018-05-04T04:12:50.109Z,536.00
2018-05-04T04:14:43.098Z,576.00
2018-05-04T04:15:43.087Z,532.00
2018-05-04T04:17:36.044Z,568.00
2018-05-04T04:18:36.027Z,604.00
2018-05-04T04:20:28.931Z,824.00
2018-05-04T04:21:28.908Z,932.00
2018-05-04T04:23:21.866Z,796.00
2018-05-04T04:24:21.859Z,784.00
2018-05-04T04:26:14.819Z,1112.00
2018-05-04T04:27:14.795Z,1112.00
2018-05-04T04:29:07.788Z,1436.00
2018-05-04T04:30:07.729Z,1632.00
2018-05-04T04:32:00.645Z,1936.00
2018-05-04T04:33:00.624Z,2052.00
2018-05-04T04:34:53.522Z,2112.00
2018-05-04T04:35:53.509Z,1920.00
2018-05-04T04:37:46.538Z,1324.00
2018-05-04T04:38:46.594Z,1232.00
2018-05-04T04:40:39.470Z,1092.00
2018-05-04T04:41:39.446Z,1004.00
2018-05-04T04:43:32.360Z,936.00
2018-05-04T04:44:32.338Z,1096.00
2018-05-04T04:46:25.299Z,1348.00
2018-05-04T04:47:25.277Z,1576.00
2018-05-04T04:49:18.220Z,2080.00
2018-05-04T04:50:18.205Z,2164.00
2018-05-04T04:52:11.138Z,2960.00
2018-05-04T04:53:11.106Z,2964.00
2018-05-04T04:55:03.980Z,3240.00
2018-05-04T04:56:04.002Z,3464.00
2018-05-04T04:57:56.918Z,4164.00
2018-05-04T04:58:56.893Z,4672.00
2018-05-04T05:00:49.872Z,4888.00
2018-05-04T05:01:49.902Z,5304.00
2018-05-04T05:03:42.796Z,5180.00
2018-05-04T05:04:42.789Z,5280.00
2018-05-04T05:06:35.681Z,5404.00
2018-05-04T05:07:35.658Z,5344.00
2018-05-04T05:09:28.621Z,4964.00
2018-05-04T05:10:28.596Z,4848.00
2018-05-04T05:12:21.584Z,5040.00
2018-05-04T05:13:21.563Z,5064.00
2018-05-04T05:15:14.524Z,4600.00
2018-05-04T05:16:14.510Z,4520.00
2018-05-04T05:18:07.517Z,5572.00
2018-05-04T05:19:07.505Z,7752.00
2018-05-04T05:21:00.410Z,9464.00
2018-05-04T05:22:00.408Z,9576.00
2018-05-04T05:23:53.297Z,9392.00
2018-05-04T05:24:53.280Z,9664.00
2018-05-04T05:26:46.255Z,9628.00
2018-05-04T05:27:46.236Z,9416.00
2018-05-04T05:29:39.167Z,9448.00
2018-05-04T05:30:39.133Z,9396.00
2018-05-04T05:32:32.150Z,9412.00
2018-05-04T05:33:32.130Z,9212.00
2018-05-04T05:35:25.117Z,9788.00
2018-05-04T05:36:25.056Z,10060.00
2018-05-04T05:38:18.064Z,9736.00
2018-05-04T05:39:18.045Z,9804.00
2018-05-04T05:41:11.000Z,9888.00
2018-05-04T05:42:10.979Z,9924.00
2018-05-04T05:44:03.965Z,9588.00
2018-05-04T05:45:03.985Z,9780.00
2018-05-04T05:46:56.897Z,10204.00
2018-05-04T05:47:56.951Z,10492.00
2018-05-04T05:49:49.797Z,10672.00
2018-05-04T05:50:49.782Z,10724.00
2018-05-04T05:52:42.727Z,10536.00
2018-05-04T05:53:42.709Z,10692.00
2018-05-04T05:55:35.698Z,9956.00
2018-05-04T05:56:35.654Z,9896.00
2018-05-04T05:58:28.604Z,9476.00
2018-05-04T05:59:28.587Z,9904.00
2018-05-04T06:01:22.217Z,11048.00
2018-05-04T06:02:21.494Z,10148.00
2018-05-04T06:03:21.498Z,9972.00
2018-05-04T06:04:21.500Z,9080.00
2018-05-04T06:05:21.488Z,9280.00
2018-05-04T06:06:21.485Z,10316.00
2018-05-04T06:07:21.481Z,10260.00
2018-05-04T06:08:21.475Z,10608.00
2018-05-04T06:09:21.535Z,10496.00
2018-05-04T06:10:21.474Z,10108.00
2018-05-04T06:11:21.493Z,9812.00
2018-05-04T06:12:21.487Z,9948.00
2018-05-04T06:13:21.462Z,9736.00
2018-05-04T06:14:21.459Z,9224.00
2018-05-04T06:15:21.455Z,9788.00
2018-05-04T06:16:21.456Z,9280.00
2018-05-04T06:17:21.455Z,9676.00
2018-05-04T06:18:21.448Z,9748.00
2018-05-04T06:19:21.441Z,9052.00
2018-05-04T06:20:21.444Z,9244.00
2018-05-04T06:21:21.438Z,10488.00
2018-05-04T06:22:21.436Z,10336.00
2018-05-04T06:23:21.433Z,11168.00
2018-05-04T06:24:21.429Z,10140.00
2018-05-04T06:25:21.428Z,10676.00
2018-05-04T06:26:21.422Z,10276.00
2018-05-04T06:27:21.417Z,9780.00
2018-05-04T06:28:21.436Z,9788.00
2018-05-04T06:29:21.405Z,10728.00
2018-05-04T06:30:21.411Z,11068.00
2018-05-04T06:31:21.412Z,12080.00
2018-05-04T06:32:21.405Z,12336.00
2018-05-04T06:33:21.401Z,11772.00
2018-05-04T06:34:21.397Z,13372.00
2018-05-04T06:35:21.398Z,14780.00
2018-05-04T06:36:21.393Z,16460.00
2018-05-04T06:37:21.452Z,17728.00
2018-05-04T06:38:21.415Z,17536.00
2018-05-04T06:39:21.380Z,21024.00
2018-05-04T06:40:21.388Z,18624.00
2018-05-04T06:41:21.376Z,17280.00
2018-05-04T06:42:21.375Z,17344.00
2018-05-04T06:43:21.373Z,16800.00
2018-05-04T06:44:21.369Z,14776.00
2018-05-04T06:45:21.359Z,14536.00
2018-05-04T06:46:21.360Z,15700.00
2018-05-04T06:47:21.361Z,17920.00
2018-05-04T06:48:21.392Z,19136.00
2018-05-04T06:49:21.378Z,21600.00
2018-05-04T06:50:21.358Z,25440.00
2018-05-04T06:51:21.353Z,26880.00
2018-05-04T06:52:21.357Z,20128.00
2018-05-04T06:53:21.407Z,18592.00
2018-05-04T06:54:21.381Z,18784.00
2018-05-04T06:55:21.350Z,18880.00
2018-05-04T06:56:21.345Z,20640.00
2018-05-04T06:57:21.361Z,20672.00
2018-05-04T06:58:21.338Z,20192.00
2018-05-04T06:59:21.429Z,21504.00
2018-05-04T07:00:21.348Z,21920.00
2018-05-04T07:01:23.475Z,22496.00
2018-05-04T07:02:21.344Z,21248.00
2018-05-04T07:03:21.336Z,20832.00
2018-05-04T07:04:21.329Z,18976.00
2018-05-04T07:05:21.333Z,19584.00
2018-05-04T07:06:21.333Z,18944.00
2018-05-04T07:07:21.395Z,20896.00
2018-05-04T07:08:21.332Z,21088.00
2018-05-04T07:09:21.411Z,20992.00
2018-05-04T07:10:21.392Z,24640.00
2018-05-04T07:11:21.326Z,26784.00
2018-05-04T07:12:21.329Z,32320.00
2018-05-04T07:13:21.325Z,38752.00
2018-05-04T07:14:21.335Z,36224.00
2018-05-04T07:15:21.328Z,36864.00
2018-05-04T07:16:21.327Z,42464.00
2018-05-04T07:17:21.332Z,34176.00
2018-05-04T07:18:21.328Z,45152.00
2018-05-04T07:19:21.333Z,48032.00
2018-05-04T07:20:21.334Z,30304.00
2018-05-04T07:21:21.340Z,52576.00
2018-05-04T07:22:21.341Z,53888.00
2018-05-04T07:23:21.349Z,47040.00
2018-05-04T07:24:21.346Z,35648.00
2018-05-04T07:25:21.352Z,51392.00
2018-05-04T07:26:21.357Z,50048.00
2018-05-04T07:27:21.365Z,48480.00
2018-05-04T07:28:21.372Z,53696.00
2018-05-04T07:29:21.380Z,51616.00
2018-05-04T07:30:21.380Z,50656.00
2018-05-04T07:31:21.382Z,49856.00
2018-05-04T07:32:21.390Z,51968.00
2018-05-04T07:33:21.384Z,57376.00
2018-05-04T07:34:21.392Z,27360.00
2018-05-04T07:35:21.412Z,17460.00
2018-05-04T07:36:21.402Z,17856.00
2018-05-04T07:37:21.452Z,20288.00
2018-05-04T07:38:21.429Z,27232.00
2018-05-04T07:39:21.435Z,26944.00
2018-05-04T07:40:21.424Z,24128.00
2018-05-04T07:41:21.443Z,21664.00
2018-05-04T07:42:21.515Z,24832.00
2018-05-04T07:43:21.441Z,45472.00
2018-05-04T07:44:21.457Z,36096.00
2018-05-04T07:45:21.484Z,30720.00
2018-05-04T07:46:21.546Z,44864.00
2018-05-04T07:47:21.472Z,47456.00
2018-05-04T07:48:21.515Z,49696.00
2018-05-04T07:49:21.476Z,52128.00
2018-05-04T07:50:21.519Z,53120.00
2018-05-04T07:51:21.488Z,53728.00
2018-05-04T07:52:21.489Z,54368.00
2018-05-04T07:53:21.499Z,54464.00
2018-05-04T07:54:21.501Z,54848.00
2018-05-04T07:55:21.513Z,53696.00
2018-05-04T07:56:21.516Z,54496.00
2018-05-04T07:57:21.519Z,54176.00
2018-05-04T07:58:21.537Z,55008.00
2018-05-04T07:59:21.539Z,53888.00
2018-05-04T08:00:21.543Z,55360.00
2018-05-04T08:01:21.554Z,58208.00
2018-05-04T08:02:21.568Z,58496.00
2018-05-04T08:03:21.568Z,55904.00
2018-05-04T08:04:21.585Z,53056.00
2018-05-04T08:05:21.587Z,57600.00
2018-05-04T08:06:21.590Z,59808.00
2018-05-04T08:07:21.604Z,58368.00
2018-05-04T08:08:21.605Z,55744.00
2018-05-04T08:09:21.618Z,44896.00
2018-05-04T08:10:21.621Z,60576.00
2018-05-04T08:11:21.630Z,40320.00
2018-05-04T08:12:21.644Z,67456.00
2018-05-04T08:13:21.658Z,67840.00
2018-05-04T08:14:21.653Z,65248.00
2018-05-04T08:15:21.666Z,59648.00
2018-05-04T08:16:21.686Z,44960.00
2018-05-04T08:17:21.749Z,51200.00
2018-05-04T08:18:21.705Z,61600.00
2018-05-04T08:19:21.721Z,65152.00
2018-05-04T08:20:21.723Z,68256.00
2018-05-04T08:21:21.732Z,47200.00
2018-05-04T08:22:21.744Z,29472.00
2018-05-04T08:23:21.753Z,55648.00
2018-05-04T08:24:21.768Z,44320.00
2018-05-04T08:25:21.776Z,38208.00
2018-05-04T08:26:21.784Z,47648.00
2018-05-04T08:27:21.829Z,34848.00
2018-05-04T08:28:21.801Z,32960.00
2018-05-04T08:29:21.869Z,71328.00
2018-05-04T08:30:21.822Z,28576.00
2018-05-04T08:31:21.830Z,47712.00
2018-05-04T08:32:21.839Z,25824.00
2018-05-04T08:33:21.847Z,22592.00
2018-05-04T08:34:21.862Z,22368.00
2018-05-04T08:35:21.878Z,22144.00
2018-05-04T08:36:21.864Z,22400.00
2018-05-04T08:37:21.907Z,23584.00
2018-05-04T08:38:21.916Z,22656.00
2018-05-04T08:39:21.891Z,27008.00
2018-05-04T08:40:21.947Z,27040.00
2018-05-04T08:41:21.907Z,21920.00
2018-05-04T08:42:21.905Z,19904.00
2018-05-04T08:43:21.910Z,20128.00
2018-05-04T08:44:21.915Z,21024.00
2018-05-04T08:45:21.917Z,22048.00
2018-05-04T08:46:21.968Z,28128.00
2018-05-04T08:47:21.969Z,27136.00
2018-05-04T08:48:21.976Z,28800.00
2018-05-04T08:49:21.929Z,26208.00
2018-05-04T08:50:21.939Z,21312.00
2018-05-04T08:51:21.961Z,17632.00
2018-05-04T08:52:21.939Z,16704.00
2018-05-04T08:53:21.943Z,15028.00
2018-05-04T08:54:21.961Z,14928.00
2018-05-04T08:55:21.954Z,14000.00
2018-05-04T08:56:21.951Z,13004.00
2018-05-04T08:57:22.005Z,14320.00
2018-05-04T08:58:21.947Z,13200.00
2018-05-04T08:59:21.953Z,12704.00
2018-05-04T09:00:21.958Z,13468.00
2018-05-04T09:01:21.962Z,13400.00
2018-05-04T09:02:22.068Z,13724.00
2018-05-04T09:03:21.954Z,14628.00
2018-05-04T09:04:21.968Z,13592.00
2018-05-04T09:05:22.032Z,13144.00
2018-05-04T09:06:21.958Z,13648.00
2018-05-04T09:07:22.005Z,15252.00
2018-05-04T09:08:21.955Z,12416.00
2018-05-04T09:09:21.957Z,13832.00
2018-05-04T09:10:21.960Z,17440.00
2018-05-04T09:11:21.955Z,14780.00
2018-05-04T09:12:21.971Z,13776.00
2018-05-04T09:13:21.955Z,13748.00
2018-05-04T09:14:21.954Z,13556.00
2018-05-04T09:15:21.953Z,15764.00
2018-05-04T09:16:21.976Z,16992.00
2018-05-04T09:17:21.956Z,15444.00
2018-05-04T09:18:21.967Z,14424.00
2018-05-04T09:19:21.949Z,12704.00
2018-05-04T09:20:21.953Z,12668.00
2018-05-04T09:21:21.950Z,12596.00
2018-05-04T09:22:21.949Z,11916.00
2018-05-04T09:23:21.949Z,11268.00
2018-05-04T09:24:21.945Z,12816.00
2018-05-04T09:25:22.005Z,14228.00
2018-05-04T09:26:21.944Z,12868.00
2018-05-04T09:27:21.947Z,13012.00
2018-05-04T09:28:21.943Z,13428.00
2018-05-04T09:29:21.945Z,15544.00
2018-05-04T09:30:21.935Z,15560.00
2018-05-04T09:31:21.952Z,16440.00
2018-05-04T09:32:21.961Z,17664.00
2018-05-04T09:33:21.939Z,18848.00
2018-05-04T09:34:21.947Z,18304.00
2018-05-04T09:35:21.937Z,19776.00
2018-05-04T09:36:21.929Z,19424.00
2018-05-04T09:37:22.835Z,22944.00
2018-05-04T09:38:21.929Z,21536.00
2018-05-04T09:39:21.932Z,22720.00
2018-05-04T09:40:21.924Z,22144.00
2018-05-04T09:41:21.931Z,23616.00
2018-05-04T09:42:21.931Z,27456.00
2018-05-04T09:43:21.942Z,27904.00
2018-05-04T09:44:21.942Z,25568.00
2018-05-04T09:45:21.953Z,30048.00
2018-05-04T09:46:21.949Z,28480.00
2018-05-04T09:47:21.928Z,30176.00
2018-05-04T09:48:21.930Z,34464.00
2018-05-04T09:49:21.927Z,34016.00
2018-05-04T09:50:21.930Z,31744.00
2018-05-04T09:51:21.929Z,28928.00
2018-05-04T09:52:21.932Z,28768.00
2018-05-04T09:53:21.933Z,33920.00
2018-05-04T09:54:21.938Z,36544.00
2018-05-04T09:55:21.925Z,42144.00
2018-05-04T09:56:21.939Z,70880.00
2018-05-04T09:57:21.938Z,42752.00
2018-05-04T09:58:21.960Z,40736.00
2018-05-04T09:59:21.941Z,44672.00
2018-05-04T10:00:21.944Z,70144.00
2018-05-04T10:01:21.971Z,46848.00
2018-05-04T10:02:21.955Z,49824.00
2018-05-04T10:03:21.968Z,65120.00
2018-05-04T10:04:21.975Z,69408.00
2018-05-04T10:05:21.981Z,58272.00
2018-05-04T10:06:21.976Z,65280.00
2018-05-04T10:07:21.990Z,51040.00
2018-05-04T10:08:21.992Z,39136.00
2018-05-04T10:09:22.000Z,62112.00
2018-05-04T10:10:22.017Z,39264.00
2018-05-04T10:11:22.023Z,65440.00
2018-05-04T10:12:22.026Z,35904.00
2018-05-04T10:13:22.038Z,41184.00
2018-05-04T10:14:22.045Z,50816.00
2018-05-04T10:15:22.056Z,60480.00
2018-05-04T10:16:22.067Z,54528.00
2018-05-04T10:17:22.068Z,41824.00
2018-05-04T10:18:22.093Z,32192.00
2018-05-04T10:19:22.083Z,28576.00
2018-05-04T10:20:22.102Z,57056.00
2018-05-04T10:21:22.112Z,40640.00
2018-05-04T10:22:22.203Z,39776.00
2018-05-04T10:23:22.129Z,34560.00
2018-05-04T10:24:22.139Z,48640.00
2018-05-04T10:25:22.148Z,51808.00
2018-05-04T10:26:22.161Z,45792.00
2018-05-04T10:27:22.164Z,27488.00
2018-05-04T10:28:22.173Z,36160.00
2018-05-04T10:29:22.191Z,36224.00
2018-05-04T10:30:22.198Z,33984.00
2018-05-04T10:31:22.212Z,57664.00
2018-05-04T10:32:22.217Z,65248.00
2018-05-04T10:33:22.221Z,55456.00
2018-05-04T10:34:22.237Z,60576.00
2018-05-04T10:35:22.245Z,24480.00
2018-05-04T10:36:22.253Z,34656.00
2018-05-04T10:37:22.297Z,39904.00
2018-05-04T10:38:22.353Z,79072.00
2018-05-04T10:39:22.286Z,78976.00
2018-05-04T10:40:22.305Z,39456.00
2018-05-04T10:41:22.298Z,27744.00
2018-05-04T10:42:22.308Z,22848.00
2018-05-04T10:43:22.318Z,29216.00
2018-05-04T10:44:22.325Z,62112.00
2018-05-04T10:45:22.347Z,67392.00
2018-05-04T10:46:22.358Z,35584.00
2018-05-04T10:47:22.349Z,70208.00
2018-05-04T10:48:22.364Z,68384.00
2018-05-04T10:49:22.372Z,48576.00
2018-05-04T10:50:22.378Z,71680.00
2018-05-04T10:51:22.385Z,36960.00
2018-05-04T10:52:22.395Z,26656.00
2018-05-04T10:53:22.404Z,33184.00
2018-05-04T10:54:22.413Z,37856.00
2018-05-04T10:55:22.418Z,39040.00
2018-05-04T10:56:22.450Z,45824.00
2018-05-04T10:57:22.435Z,23104.00
2018-05-04T10:58:22.450Z,20768.00
2018-05-04T10:59:22.460Z,24224.00
2018-05-04T11:00:22.464Z,25472.00
2018-05-04T11:01:22.474Z,19712.00
2018-05-04T11:02:22.478Z,19808.00
2018-05-04T11:03:22.480Z,18688.00
2018-05-04T11:04:22.492Z,21152.00
2018-05-04T11:05:22.559Z,24640.00
2018-05-04T11:06:22.501Z,25696.00
2018-05-04T11:07:22.503Z,28096.00
2018-05-04T11:08:22.514Z,27104.00
2018-05-04T11:09:22.519Z,25952.00
2018-05-04T11:10:22.537Z,24544.00
2018-05-04T11:11:22.562Z,21696.00
2018-05-04T11:12:22.530Z,19456.00
2018-05-04T11:13:22.542Z,20064.00
2018-05-04T11:14:22.538Z,25696.00
2018-05-04T11:15:22.541Z,26816.00
2018-05-04T11:16:22.546Z,29088.00
2018-05-04T11:17:22.549Z,35040.00
2018-05-04T11:18:22.575Z,34752.00
2018-05-04T11:19:22.606Z,30816.00
2018-05-04T11:20:22.621Z,33568.00
2018-05-04T11:21:22.559Z,30944.00
2018-05-04T11:22:22.561Z,27200.00
2018-05-04T11:23:22.566Z,31104.00
2018-05-04T11:24:22.575Z,25696.00
2018-05-04T11:25:22.648Z,53280.00
2018-05-04T11:26:22.582Z,28992.00
2018-05-04T11:27:22.596Z,49024.00
2018-05-04T11:28:22.587Z,23392.00
2018-05-04T11:29:22.588Z,26464.00
2018-05-04T11:30:22.592Z,30176.00
2018-05-04T11:31:22.596Z,35232.00
2018-05-04T11:32:22.603Z,31616.00
2018-05-04T11:33:22.605Z,24224.00
2018-05-04T11:34:22.613Z,23456.00
2018-05-04T11:35:22.609Z,22848.00
2018-05-04T11:36:22.623Z,19584.00
2018-05-04T11:37:22.611Z,17792.00
2018-05-04T11:38:22.621Z,19072.00
2018-05-04T11:39:22.651Z,18368.00
2018-05-04T11:40:22.629Z,18400.00
2018-05-04T11:41:22.629Z,18592.00
2018-05-04T11:42:22.640Z,18336.00
2018-05-04T11:43:22.636Z,19104.00
2018-05-04T11:44:22.655Z,19680.00
2018-05-04T11:45:22.662Z,21504.00
2018-05-04T11:46:22.694Z,19360.00
2018-05-04T11:47:22.666Z,23872.00
2018-05-04T11:48:22.652Z,19456.00
2018-05-04T11:49:22.654Z,17824.00
2018-05-04T11:50:22.650Z,18400.00
2018-05-04T11:51:22.654Z,20512.00
2018-05-04T11:52:22.659Z,16120.00
2018-05-04T11:53:22.658Z,19776.00
2018-05-04T11:54:22.681Z,22976.00
2018-05-04T11:55:22.663Z,20160.00
2018-05-04T11:56:22.665Z,15200.00
2018-05-04T11:57:22.665Z,15028.00
2018-05-04T11:58:22.665Z,16160.00
2018-05-04T11:59:22.657Z,22176.00
2018-05-04T12:00:22.661Z,22752.00
2018-05-04T12:01:22.663Z,19200.00
2018-05-04T12:02:22.712Z,19392.00
2018-05-04T12:03:22.679Z,19296.00
2018-05-04T12:04:22.688Z,19200.00
2018-05-04T12:05:22.673Z,19392.00
2018-05-04T12:06:22.677Z,19744.00
2018-05-04T12:07:22.735Z,20352.00
2018-05-04T12:08:22.685Z,17280.00
2018-05-04T12:09:22.677Z,19104.00
2018-05-04T12:10:22.679Z,22400.00
2018-05-04T12:11:22.685Z,19840.00
2018-05-04T12:12:22.679Z,18528.00
2018-05-04T12:13:22.685Z,18816.00
2018-05-04T12:14:22.685Z,20128.00
2018-05-04T12:15:22.682Z,22688.00
2018-05-04T12:16:22.704Z,16020.00
2018-05-04T12:17:22.690Z,16544.00
2018-05-04T12:18:22.683Z,22496.00
2018-05-04T12:19:22.689Z,28064.00
2018-05-04T12:20:22.686Z,32704.00
2018-05-04T12:21:22.689Z,32704.00
2018-05-04T12:22:22.688Z,29152.00
2018-05-04T12:23:22.690Z,29440.00
2018-05-04T12:24:22.698Z,23392.00
2018-05-04T12:25:22.692Z,21024.00
2018-05-04T12:26:22.693Z,20640.00
2018-05-04T12:27:22.699Z,19648.00
2018-05-04T12:28:22.695Z,15660.00
2018-05-04T12:29:22.702Z,17216.00
2018-05-04T12:30:22.704Z,15952.00
2018-05-04T12:31:22.703Z,14444.00
2018-05-04T12:32:22.705Z,20576.00
2018-05-04T12:33:22.710Z,25440.00
2018-05-04T12:34:22.710Z,19584.00
2018-05-04T12:35:22.710Z,18464.00
2018-05-04T12:36:22.711Z,17376.00
2018-05-04T12:37:22.715Z,19872.00
2018-05-04T12:38:22.712Z,18848.00
2018-05-04T12:39:22.716Z,19808.00
2018-05-04T12:40:22.774Z,19072.00
2018-05-04T12:41:22.720Z,21248.00
2018-05-04T12:42:22.718Z,18272.00
2018-05-04T12:43:22.736Z,13724.00
2018-05-04T12:44:22.718Z,11528.00
2018-05-04T12:45:22.723Z,16436.00
2018-05-04T12:46:22.723Z,17888.00
2018-05-04T12:47:22.727Z,13500.00
2018-05-04T12:48:22.725Z,13356.00
2018-05-04T12:49:22.727Z,16008.00
2018-05-04T12:50:22.726Z,20800.00
2018-05-04T12:51:22.729Z,18976.00
2018-05-04T12:52:22.728Z,13624.00
2018-05-04T12:53:22.743Z,11656.00
2018-05-04T12:54:22.721Z,10600.00
2018-05-04T12:55:22.728Z,11620.00
2018-05-04T12:56:22.753Z,12424.00
2018-05-04T12:57:22.727Z,12756.00
2018-05-04T12:58:22.730Z,17408.00
2018-05-04T12:59:22.730Z,21280.00
2018-05-04T13:00:22.731Z,14312.00
2018-05-04T13:01:22.757Z,12880.00
2018-05-04T13:02:22.730Z,12584.00
2018-05-04T13:03:22.734Z,11824.00
2018-05-04T13:04:22.757Z,14244.00
2018-05-04T13:05:22.751Z,10740.00
2018-05-04T13:06:22.735Z,7712.00
2018-05-04T13:07:22.766Z,7868.00
2018-05-04T13:08:22.728Z,9764.00
2018-05-04T13:09:22.727Z,9868.00
2018-05-04T13:10:22.739Z,7268.00
2018-05-04T13:11:22.749Z,6796.00
2018-05-04T13:12:22.738Z,7836.00
2018-05-04T13:13:22.767Z,6464.00
2018-05-04T13:14:22.754Z,5980.00
2018-05-04T13:15:22.780Z,6696.00
2018-05-04T13:16:22.784Z,6536.00
2018-05-04T13:17:22.790Z,5904.00
2018-05-04T13:18:22.726Z,6036.00
2018-05-04T13:19:22.725Z,6248.00
2018-05-04T13:20:22.730Z,6468.00
2018-05-04T13:21:22.869Z,6620.00
2018-05-04T13:22:22.709Z,8192.00
2018-05-04T13:23:22.765Z,8744.00
2018-05-04T13:24:22.711Z,10244.00
2018-05-04T13:25:22.713Z,13416.00
2018-05-04T13:26:22.728Z,14756.00
2018-05-04T13:27:22.716Z,12352.00
2018-05-04T13:28:22.756Z,13488.00
2018-05-04T13:29:22.713Z,14832.00
2018-05-04T13:30:22.711Z,12892.00
2018-05-04T13:31:22.712Z,12004.00
2018-05-04T13:32:22.709Z,10376.00
2018-05-04T13:33:22.767Z,11476.00
2018-05-04T13:34:22.709Z,10332.00
2018-05-04T13:35:22.711Z,10908.00
2018-05-04T13:36:22.697Z,11452.00
2018-05-04T13:37:22.707Z,14916.00
2018-05-04T13:38:22.702Z,15244.00
2018-05-04T13:39:22.705Z,16608.00
2018-05-04T13:40:22.704Z,20192.00
2018-05-04T13:41:22.721Z,22592.00
2018-05-04T13:42:22.721Z,23040.00
2018-05-04T13:43:22.702Z,22400.00
2018-05-04T13:44:22.701Z,20960.00
2018-05-04T13:45:22.700Z,21472.00
2018-05-04T13:46:22.702Z,19712.00
2018-05-04T13:47:22.700Z,20512.00
2018-05-04T13:48:22.702Z,20096.00
2018-05-04T13:49:22.702Z,18400.00
2018-05-04T13:50:22.700Z,14672.00
2018-05-04T13:51:22.710Z,12204.00
2018-05-04T13:52:22.703Z,10364.00